Time;durP1;ratioP1;P1;durP2;ratioP2;P2;SDS_P1;SDS_P2;PMS_P1;PMS_P2;Temp;Humidity;BMP_temperature;BMP_pressure;BME280_temperature;BME280_humidity;BME280_pressure;Samples;Min_cycle;Max_cycle;Signal;HPM_P1;HPM_P2
2021/12/01 00:00:13;;;;;;;3.50;1.77;;;;;;;;;;5042863;28;20725;-66
2021/12/01 00:02:39;;;;;;;2.67;1.42;;;;;;;;;;5044468;28;20546;-67
2021/12/01 00:05:07;;;;;;;2.38;1.60;;;;;;;;;;5046407;28;20215;-66
2021/12/01 00:07:37;;;;;;;9.13;1.60;;;;;;;;;;5041590;28;20250;-67
2021/12/01 00:10:08;;;;;;;4.30;1.50;;;;;;;;;;5047680;28;20634;-67
2021/12/01 00:12:35;;;;;;;3.47;1.73;;;;;;;;;;5047981;28;20187;-66
2021/12/01 00:15:01;;;;;;;1.85;1.30;;;;;;;;;;5049323;28;20187;-67
2021/12/01 00:17:28;;;;;;;4.55;1.73;;;;;;;;;;5049561;28;20182;-65
2021/12/01 00:19:54;;;;;;;5.53;2.05;;;;;;;;;;5044474;28;20211;-67
2021/12/01 00:22:21;;;;;;;5.40;2.38;;;;;;;;;;5041653;28;20214;-65
2021/12/01 00:24:47;;;;;;;5.60;1.98;;;;;;;;;;5039086;28;20183;-71
2021/12/01 00:27:14;;;;;;;4.32;1.52;;;;;;;;;;5046599;28;20213;-64
2021/12/01 00:29:40;;;;;;;2.92;1.90;;;;;;;;;;5042407;28;20183;-64
2021/12/01 00:32:09;;;;;;;4.35;1.67;;;;;;;;;;5044002;28;20229;-66
2021/12/01 00:34:36;;;;;;;2.80;1.80;;;;;;;;;;5044919;28;20182;-65
2021/12/01 00:37:03;;;;;;;2.85;1.90;;;;;;;;;;5045484;28;20837;-65
2021/12/01 00:39:30;;;;;;;2.33;1.58;;;;;;;;;;5043521;28;20552;-65
2021/12/01 00:41:58;;;;;;;2.42;1.65;;;;;;;;;;5040262;28;20190;-68
2021/12/01 00:44:25;;;;;;;1.45;1.30;;;;;;;;;;5041724;28;20514;-67
2021/12/01 00:47:06;;;;;;;3.28;1.60;;;;;;;;;;5038388;28;20348;-65
2021/12/01 00:49:34;;;;;;;2.53;1.90;;;;;;;;;;5039789;28;20329;-66
2021/12/01 00:52:01;;;;;;;2.88;1.52;;;;;;;;;;5039344;28;20942;-65
2021/12/01 00:54:28;;;;;;;2.58;1.55;;;;;;;;;;5041326;28;20549;-65
2021/12/01 00:56:54;;;;;;;6.90;1.70;;;;;;;;;;5043181;28;20196;-66
2021/12/01 00:59:20;;;;;;;3.95;1.73;;;;;;;;;;5048635;28;20669;-66
2021/12/01 01:01:47;;;;;;;3.63;1.63;;;;;;;;;;5043589;28;20191;-67
2021/12/01 01:04:14;;;;;;;5.88;2.22;;;;;;;;;;5039848;28;20256;-65
2021/12/01 01:06:42;;;;;;;1.80;1.15;;;;;;;;;;5036320;28;20226;-66
2021/12/01 01:09:10;;;;;;;4.40;1.63;;;;;;;;;;5045700;28;20221;-65
2021/12/01 01:17:09;;;;;;;2.00;1.45;;;;;;;;;;5041658;28;20189;-66
2021/12/01 01:19:36;;;;;;;1.65;1.55;;;;;;;;;;5038346;28;20242;-66
2021/12/01 01:22:03;;;;;;;2.80;1.60;;;;;;;;;;5040125;28;20214;-65
2021/12/01 01:24:30;;;;;;;1.17;1.08;;;;;;;;;;5042010;28;20217;-65
2021/12/01 01:26:56;;;;;;;3.60;1.20;;;;;;;;;;5044927;28;20229;-66
2021/12/01 01:29:26;;;;;;;2.83;1.83;;;;;;;;;;5042236;28;20627;-66
2021/12/01 01:31:55;;;;;;;3.67;1.52;;;;;;;;;;5036715;28;20195;-65
2021/12/01 01:34:21;;;;;;;2.38;1.55;;;;;;;;;;5042320;28;20179;-66
2021/12/01 01:36:48;;;;;;;1.20;1.10;;;;;;;;;;5047479;28;20187;-65
2021/12/01 01:39:14;;;;;;;4.70;1.70;;;;;;;;;;5050937;28;20227;-66
2021/12/01 01:41:41;;;;;;;4.45;1.13;;;;;;;;;;5046146;28;20186;-66
2021/12/01 01:44:07;;;;;;;7.30;1.60;;;;;;;;;;5042461;28;20724;-67
2021/12/01 01:46:35;;;;;;;2.75;1.40;;;;;;;;;;5047843;28;20285;-66
2021/12/01 01:49:11;;;;;;;2.45;1.70;;;;;;;;;;5049256;28;20642;-65
2021/12/01 01:51:40;;;;;;;2.55;1.90;;;;;;;;;;5042921;28;20183;-67
2021/12/01 01:54:06;;;;;;;2.65;1.38;;;;;;;;;;5045325;28;20673;-67
2021/12/01 01:56:33;;;;;;;1.75;1.27;;;;;;;;;;5050266;28;20183;-65
2021/12/01 01:59:02;;;;;;;2.05;1.67;;;;;;;;;;5048271;28;20303;-67
2021/12/01 02:01:44;;;;;;;2.45;1.35;;;;;;;;;;5032195;28;20739;-67
2021/12/01 02:04:18;;;;;;;5.28;2.00;;;;;;;;;;5039665;28;20218;-65
2021/12/01 02:06:47;;;;;;;1.90;1.52;;;;;;;;;;5039049;28;20190;-66
2021/12/01 02:09:14;;;;;;;3.53;1.55;;;;;;;;;;5039895;28;20664;-66
2021/12/01 02:11:41;;;;;;;3.10;1.58;;;;;;;;;;5036299;28;20242;-66
2021/12/01 02:14:08;;;;;;;3.08;1.50;;;;;;;;;;5039002;28;20270;-68
2021/12/01 02:16:35;;;;;;;2.25;1.55;;;;;;;;;;5034491;28;20191;-67
2021/12/01 02:19:01;;;;;;;4.30;1.58;;;;;;;;;;5032697;28;20691;-67
2021/12/01 02:21:29;;;;;;;3.83;1.35;;;;;;;;;;5040176;28;20183;-68
2021/12/01 02:24:00;;;;;;;1.65;1.30;;;;;;;;;;5045932;28;20190;-67
2021/12/01 02:26:27;;;;;;;2.67;1.48;;;;;;;;;;5045629;28;20206;-66
2021/12/01 02:28:56;;;;;;;2.50;1.50;;;;;;;;;;5038657;28;20264;-67
2021/12/01 02:31:25;;;;;;;4.55;3.00;;;;;;;;;;5038995;28;20190;-67
2021/12/01 02:33:53;;;;;;;5.57;2.00;;;;;;;;;;5042517;28;20531;-67
2021/12/01 02:36:19;;;;;;;6.95;2.75;;;;;;;;;;5043009;28;20273;-68
2021/12/01 02:38:47;;;;;;;3.80;1.45;;;;;;;;;;5047797;28;20187;-67
2021/12/01 02:41:14;;;;;;;2.60;2.03;;;;;;;;;;5047168;28;20646;-68
2021/12/01 02:43:41;;;;;;;6.20;2.20;;;;;;;;;;5048326;28;20697;-66
2021/12/01 02:46:08;;;;;;;3.53;2.42;;;;;;;;;;5048601;28;20202;-67
2021/12/01 02:48:41;;;;;;;3.80;2.17;;;;;;;;;;5047187;28;20233;-66
2021/12/01 02:51:08;;;;;;;4.55;2.08;;;;;;;;;;5043506;28;20665;-69
2021/12/01 02:53:35;;;;;;;6.03;3.47;;;;;;;;;;5042435;28;20186;-66
2021/12/01 02:56:02;;;;;;;8.70;5.38;;;;;;;;;;5042394;28;20187;-65
2021/12/01 02:58:32;;;;;;;5.50;3.00;;;;;;;;;;5049010;28;20273;-67
2021/12/01 03:00:59;;;;;;;4.72;2.55;;;;;;;;;;5045151;28;20220;-65
2021/12/01 03:03:26;;;;;;;4.60;2.95;;;;;;;;;;5048072;28;20589;-66
2021/12/01 03:05:53;;;;;;;2.90;2.30;;;;;;;;;;5047881;28;20540;-64
2021/12/01 03:08:20;;;;;;;2.63;1.60;;;;;;;;;;5046413;28;20237;-64
2021/12/01 03:10:48;;;;;;;15.98;7.03;;;;;;;;;;5047969;28;20586;-66
2021/12/01 03:13:15;;;;;;;4.18;2.15;;;;;;;;;;5041993;28;21037;-65
2021/12/01 03:15:42;;;;;;;3.80;2.00;;;;;;;;;;5042088;28;20570;-66
2021/12/01 03:18:09;;;;;;;3.10;1.85;;;;;;;;;;5041994;28;20200;-65
2021/12/01 03:20:35;;;;;;;4.75;1.88;;;;;;;;;;5045862;28;20547;-64
2021/12/01 03:23:02;;;;;;;3.28;1.90;;;;;;;;;;5044802;28;20230;-66
2021/12/01 03:25:28;;;;;;;2.35;1.33;;;;;;;;;;5047305;28;20187;-66
2021/12/01 03:27:55;;;;;;;1.83;1.63;;;;;;;;;;5048745;28;20276;-65
2021/12/01 03:30:22;;;;;;;3.42;2.08;;;;;;;;;;5045185;28;20665;-66
2021/12/01 03:32:49;;;;;;;2.90;1.65;;;;;;;;;;5045584;28;20229;-66
2021/12/01 03:35:16;;;;;;;5.38;1.60;;;;;;;;;;5048149;28;20199;-66
2021/12/01 03:37:43;;;;;;;4.30;1.98;;;;;;;;;;5040196;28;20205;-66
2021/12/01 03:40:11;;;;;;;5.63;2.28;;;;;;;;;;5046093;28;20221;-64
2021/12/01 03:42:37;;;;;;;5.60;2.38;;;;;;;;;;5035953;28;20240;-65
2021/12/01 03:45:06;;;;;;;2.78;1.70;;;;;;;;;;5047875;28;20324;-66
2021/12/01 03:47:33;;;;;;;3.25;1.83;;;;;;;;;;5047064;28;20214;-66
2021/12/01 03:50:00;;;;;;;2.97;1.63;;;;;;;;;;5035984;28;20554;-66
2021/12/01 03:52:27;;;;;;;2.30;2.10;;;;;;;;;;5047988;28;20229;-66
2021/12/01 03:54:53;;;;;;;4.03;2.22;;;;;;;;;;5044659;28;20191;-67
2021/12/01 03:57:20;;;;;;;2.95;1.80;;;;;;;;;;5046692;28;20216;-66
2021/12/01 03:59:47;;;;;;;2.08;1.88;;;;;;;;;;5042754;28;20199;-67
2021/12/01 04:02:13;;;;;;;3.58;1.83;;;;;;;;;;5039907;28;20456;-64
2021/12/01 04:04:40;;;;;;;3.53;1.98;;;;;;;;;;5048446;28;20726;-66
2021/12/01 04:07:06;;;;;;;5.88;2.45;;;;;;;;;;5049029;28;20195;-66
2021/12/01 04:09:34;;;;;;;4.32;1.75;;;;;;;;;;5051938;28;20182;-68
2021/12/01 04:12:01;;;;;;;6.15;2.65;;;;;;;;;;5049322;28;20174;-68
2021/12/01 04:14:28;;;;;;;3.63;2.17;;;;;;;;;;5047436;28;20193;-67
2021/12/01 04:16:55;;;;;;;2.55;1.92;;;;;;;;;;5045032;28;20241;-64
2021/12/01 04:19:21;;;;;;;8.07;2.40;;;;;;;;;;5043534;28;20631;-64
2021/12/01 04:21:48;;;;;;;3.10;1.77;;;;;;;;;;5043361;28;20305;-64
2021/12/01 04:24:15;;;;;;;5.80;1.70;;;;;;;;;;5044530;28;23427;-67
2021/12/01 04:26:42;;;;;;;4.03;1.98;;;;;;;;;;5045388;28;20187;-64
2021/12/01 04:29:09;;;;;;;4.13;2.22;;;;;;;;;;5045612;28;20198;-63
2021/12/01 04:31:37;;;;;;;4.22;2.22;;;;;;;;;;5048620;28;20179;-64
2021/12/01 04:34:04;;;;;;;4.20;2.03;;;;;;;;;;5048186;28;20218;-63
2021/12/01 04:36:38;;;;;;;3.78;2.05;;;;;;;;;;5050042;28;20295;-63
2021/12/01 04:39:06;;;;;;;2.15;1.90;;;;;;;;;;5047412;28;20193;-63
2021/12/01 04:41:38;;;;;;;2.63;2.42;;;;;;;;;;5044920;28;20309;-65
2021/12/01 04:44:10;;;;;;;3.55;2.58;;;;;;;;;;5040891;28;20248;-65
2021/12/01 04:46:44;;;;;;;3.13;2.13;;;;;;;;;;5046540;28;20195;-64
2021/12/01 04:49:12;;;;;;;6.05;2.22;;;;;;;;;;5047476;28;20263;-64
2021/12/01 04:51:40;;;;;;;3.58;2.88;;;;;;;;;;5044620;28;20175;-65
2021/12/01 04:54:07;;;;;;;6.03;3.00;;;;;;;;;;5044745;28;20204;-64
2021/12/01 04:56:34;;;;;;;3.42;2.53;;;;;;;;;;5047993;28;20174;-64
2021/12/01 04:59:01;;;;;;;2.80;1.67;;;;;;;;;;5046141;28;20259;-65
2021/12/01 05:01:28;;;;;;;4.43;2.40;;;;;;;;;;5049311;28;20179;-64
2021/12/01 05:03:54;;;;;;;5.72;2.63;;;;;;;;;;5049697;28;20210;-64
2021/12/01 05:06:22;;;;;;;6.75;3.08;;;;;;;;;;5034549;28;20588;-64
2021/12/01 05:08:48;;;;;;;3.38;2.58;;;;;;;;;;5044745;28;20216;-64
2021/12/01 05:11:16;;;;;;;5.15;2.78;;;;;;;;;;5039606;28;20202;-64
2021/12/01 05:13:43;;;;;;;5.07;2.78;;;;;;;;;;5045391;28;20183;-64
2021/12/01 05:16:09;;;;;;;4.90;2.83;;;;;;;;;;5042429;28;20179;-64
2021/12/01 05:18:36;;;;;;;4.18;3.08;;;;;;;;;;5043961;28;20709;-64
2021/12/01 05:21:03;;;;;;;6.82;2.88;;;;;;;;;;5043161;28;20282;-65
2021/12/01 05:23:30;;;;;;;6.55;3.50;;;;;;;;;;5047578;28;20229;-63
2021/12/01 05:25:57;;;;;;;4.85;3.22;;;;;;;;;;5042276;28;20755;-64
2021/12/01 05:28:24;;;;;;;7.53;3.03;;;;;;;;;;5035731;28;20612;-63
2021/12/01 05:30:50;;;;;;;7.32;3.20;;;;;;;;;;5040681;28;20183;-64
2021/12/01 05:33:18;;;;;;;5.65;3.45;;;;;;;;;;5044123;28;20282;-64
2021/12/01 05:35:46;;;;;;;6.05;3.22;;;;;;;;;;5049762;28;20256;-64
2021/12/01 05:38:14;;;;;;;6.80;3.38;;;;;;;;;;5046621;28;20195;-63
2021/12/01 05:40:40;;;;;;;7.82;3.65;;;;;;;;;;5040914;28;20550;-63
2021/12/01 05:43:07;;;;;;;4.22;3.00;;;;;;;;;;5041578;28;20209;-63
2021/12/01 05:45:34;;;;;;;5.75;3.08;;;;;;;;;;5042313;28;20643;-64
2021/12/01 05:48:01;;;;;;;3.55;3.25;;;;;;;;;;5048591;28;20750;-64
2021/12/01 05:50:28;;;;;;;5.53;2.85;;;;;;;;;;5037253;28;20245;-63
2021/12/01 05:52:54;;;;;;;9.20;3.70;;;;;;;;;;5049295;28;20190;-64
2021/12/01 05:55:21;;;;;;;4.68;3.50;;;;;;;;;;5046624;28;20647;-64
2021/12/01 05:57:48;;;;;;;7.80;3.35;;;;;;;;;;5041349;28;20289;-63
2021/12/01 06:00:16;;;;;;;9.68;3.80;;;;;;;;;;5047733;28;20183;-64
2021/12/01 06:02:45;;;;;;;7.07;3.78;;;;;;;;;;5043285;28;20369;-63
2021/12/01 06:05:12;;;;;;;7.75;3.72;;;;;;;;;;5047821;28;20190;-63
2021/12/01 06:07:39;;;;;;;5.38;3.25;;;;;;;;;;5045649;28;20585;-63
2021/12/01 06:10:05;;;;;;;10.57;3.17;;;;;;;;;;5040036;28;20187;-63
2021/12/01 06:12:32;;;;;;;8.05;3.90;;;;;;;;;;5032997;28;20191;-63
2021/12/01 06:15:00;;;;;;;7.82;3.72;;;;;;;;;;5037507;28;20171;-63
2021/12/01 06:17:26;;;;;;;11.40;4.00;;;;;;;;;;5039500;28;20191;-65
2021/12/01 06:19:53;;;;;;;8.88;3.60;;;;;;;;;;5036860;28;20664;-64
2021/12/01 06:22:20;;;;;;;6.45;3.22;;;;;;;;;;5040937;28;20558;-63
2021/12/01 06:24:46;;;;;;;8.30;3.17;;;;;;;;;;5042144;28;20290;-64
2021/12/01 06:27:13;;;;;;;7.88;2.88;;;;;;;;;;5039290;28;20193;-63
2021/12/01 06:29:39;;;;;;;4.38;3.17;;;;;;;;;;5047474;28;20186;-64
2021/12/01 06:32:06;;;;;;;5.85;3.80;;;;;;;;;;5039983;28;20195;-63
2021/12/01 06:34:33;;;;;;;5.28;3.65;;;;;;;;;;5048768;28;20206;-63
2021/12/01 06:36:59;;;;;;;6.05;3.67;;;;;;;;;;5036072;28;20278;-64
2021/12/01 06:39:26;;;;;;;6.20;3.33;;;;;;;;;;5042332;28;20195;-64
2021/12/01 06:41:54;;;;;;;7.18;2.88;;;;;;;;;;5044610;28;20202;-64
2021/12/01 06:44:23;;;;;;;3.40;3.10;;;;;;;;;;5036296;28;20298;-64
2021/12/01 06:46:49;;;;;;;4.35;2.85;;;;;;;;;;5036845;28;20674;-63
2021/12/01 06:49:17;;;;;;;3.42;3.13;;;;;;;;;;5044078;28;20676;-64
2021/12/01 06:51:43;;;;;;;3.03;2.67;;;;;;;;;;5030009;28;20198;-64
2021/12/01 06:54:10;;;;;;;4.15;3.10;;;;;;;;;;5034870;28;20210;-64
2021/12/01 06:56:36;;;;;;;4.07;3.47;;;;;;;;;;5048407;28;20619;-65
2021/12/01 06:59:03;;;;;;;2.65;2.45;;;;;;;;;;5039677;28;20328;-65
2021/12/01 07:01:29;;;;;;;2.97;2.65;;;;;;;;;;5043481;28;20640;-65
2021/12/01 07:03:56;;;;;;;3.03;2.55;;;;;;;;;;5038979;28;20238;-64
2021/12/01 07:06:22;;;;;;;5.38;3.10;;;;;;;;;;5039535;28;20222;-65
2021/12/01 07:08:49;;;;;;;3.60;2.53;;;;;;;;;;5035223;28;20256;-64
2021/12/01 07:11:16;;;;;;;4.65;2.92;;;;;;;;;;5037331;28;20183;-64
2021/12/01 07:13:42;;;;;;;3.75;2.75;;;;;;;;;;5039038;28;20194;-64
2021/12/01 07:16:09;;;;;;;3.08;2.75;;;;;;;;;;5038272;28;20187;-64
2021/12/01 07:18:36;;;;;;;6.75;3.30;;;;;;;;;;5045477;28;20186;-64
2021/12/01 07:21:04;;;;;;;3.03;2.83;;;;;;;;;;5037311;28;20226;-64
2021/12/01 07:23:31;;;;;;;4.22;3.13;;;;;;;;;;5035724;28;20305;-63
2021/12/01 07:25:58;;;;;;;3.22;2.70;;;;;;;;;;5039547;28;20210;-64
2021/12/01 07:28:25;;;;;;;6.50;2.88;;;;;;;;;;5034164;28;20214;-64
2021/12/01 07:30:51;;;;;;;4.88;3.42;;;;;;;;;;5040647;28;20588;-64
2021/12/01 07:33:18;;;;;;;5.38;2.75;;;;;;;;;;5039949;28;20187;-64
2021/12/01 07:35:44;;;;;;;4.90;3.45;;;;;;;;;;5037282;28;20186;-64
2021/12/01 07:38:13;;;;;;;3.33;3.03;;;;;;;;;;5045417;28;20639;-64
2021/12/01 07:40:39;;;;;;;5.30;3.15;;;;;;;;;;5047010;28;20175;-65
2021/12/01 07:43:06;;;;;;;3.88;3.00;;;;;;;;;;5050539;28;20200;-65
2021/12/01 07:45:33;;;;;;;8.85;3.63;;;;;;;;;;5039353;28;20210;-66
2021/12/01 07:47:59;;;;;;;5.03;3.95;;;;;;;;;;5046527;28;20206;-64
2021/12/01 07:50:26;;;;;;;4.47;3.65;;;;;;;;;;5048477;28;20198;-66
2021/12/01 07:52:53;;;;;;;3.38;3.00;;;;;;;;;;5051097;28;20191;-64
2021/12/01 07:55:19;;;;;;;3.13;2.83;;;;;;;;;;5051613;28;20896;-64
2021/12/01 07:57:46;;;;;;;10.85;3.10;;;;;;;;;;5052439;28;20615;-63
2021/12/01 08:00:13;;;;;;;6.72;3.78;;;;;;;;;;5048788;28;20301;-65
2021/12/01 08:02:41;;;;;;;3.90;3.15;;;;;;;;;;5044803;28;20187;-63
2021/12/01 08:05:07;;;;;;;3.50;3.20;;;;;;;;;;5040898;28;20185;-64
2021/12/01 08:07:38;;;;;;;6.50;3.20;;;;;;;;;;5041674;28;20221;-64
2021/12/01 08:10:06;;;;;;;6.80;3.58;;;;;;;;;;5050809;28;20186;-65
2021/12/01 08:12:34;;;;;;;6.40;4.07;;;;;;;;;;5051886;28;20641;-64
2021/12/01 08:15:04;;;;;;;6.90;4.00;;;;;;;;;;5042826;28;20251;-64
2021/12/01 08:17:31;;;;;;;3.85;3.45;;;;;;;;;;5051457;28;20190;-64
2021/12/01 08:19:58;;;;;;;4.25;3.50;;;;;;;;;;5048942;28;20210;-64
2021/12/01 08:22:28;;;;;;;3.78;3.47;;;;;;;;;;5040498;28;20288;-63
2021/12/01 08:24:57;;;;;;;3.60;3.20;;;;;;;;;;5035681;28;20551;-64
2021/12/01 08:27:24;;;;;;;8.95;3.50;;;;;;;;;;5045979;28;20187;-66
2021/12/01 08:29:51;;;;;;;11.05;3.10;;;;;;;;;;5042302;28;20609;-64
2021/12/01 08:32:18;;;;;;;6.55;3.72;;;;;;;;;;5046504;28;20183;-63
2021/12/01 08:34:49;;;;;;;3.30;3.00;;;;;;;;;;5045595;28;20191;-64
2021/12/01 08:37:18;;;;;;;10.77;3.67;;;;;;;;;;5047017;28;20187;-64
2021/12/01 08:39:45;;;;;;;3.95;3.17;;;;;;;;;;5036297;28;20183;-64
2021/12/01 08:42:12;;;;;;;3.85;3.05;;;;;;;;;;5043329;28;20186;-65
2021/12/01 08:44:45;;;;;;;4.40;3.47;;;;;;;;;;5037615;28;20225;-64
2021/12/01 08:47:19;;;;;;;6.00;3.67;;;;;;;;;;5048791;28;20661;-66
2021/12/01 08:49:47;;;;;;;4.88;4.05;;;;;;;;;;5036353;28;20190;-65
2021/12/01 08:52:14;;;;;;;4.93;3.67;;;;;;;;;;5043220;28;20293;-64
2021/12/01 08:54:41;;;;;;;3.50;3.20;;;;;;;;;;5042290;28;20210;-64
2021/12/01 08:57:07;;;;;;;3.85;3.13;;;;;;;;;;5033492;28;20235;-65
2021/12/01 08:59:35;;;;;;;5.85;3.70;;;;;;;;;;5040303;28;20551;-65
2021/12/01 09:02:02;;;;;;;3.33;3.03;;;;;;;;;;5047293;28;20194;-65
2021/12/01 09:04:29;;;;;;;3.80;3.47;;;;;;;;;;5043300;28;20584;-64
2021/12/01 09:06:56;;;;;;;3.58;3.28;;;;;;;;;;5050058;28;20201;-64
2021/12/01 09:09:23;;;;;;;4.25;3.33;;;;;;;;;;5047326;28;20290;-65
2021/12/01 09:11:51;;;;;;;4.78;3.70;;;;;;;;;;5041625;28;20621;-64
2021/12/01 09:14:18;;;;;;;4.15;3.80;;;;;;;;;;5050457;28;20175;-64
2021/12/01 09:16:46;;;;;;;4.13;3.42;;;;;;;;;;5040561;28;20206;-64
2021/12/01 09:19:13;;;;;;;4.00;3.65;;;;;;;;;;5038274;28;20529;-65
2021/12/01 09:21:40;;;;;;;5.13;4.07;;;;;;;;;;5043654;28;20347;-65
2021/12/01 09:24:08;;;;;;;3.33;3.08;;;;;;;;;;5049916;28;20206;-64
2021/12/01 09:26:34;;;;;;;7.28;3.80;;;;;;;;;;5049524;28;20179;-64
2021/12/01 09:29:02;;;;;;;3.95;3.58;;;;;;;;;;5040744;28;20199;-66
2021/12/01 09:31:29;;;;;;;3.97;3.60;;;;;;;;;;5043698;28;20171;-64
2021/12/01 09:33:56;;;;;;;4.03;3.72;;;;;;;;;;5041774;28;20281;-64
2021/12/01 09:36:22;;;;;;;9.43;3.92;;;;;;;;;;5041730;28;20184;-65
2021/12/01 09:38:50;;;;;;;6.45;4.07;;;;;;;;;;5046113;28;20202;-64
2021/12/01 09:41:16;;;;;;;5.30;4.18;;;;;;;;;;5050187;28;20178;-64
2021/12/01 09:43:43;;;;;;;12.93;4.57;;;;;;;;;;5043354;28;20214;-64
2021/12/01 09:46:10;;;;;;;4.78;4.28;;;;;;;;;;5041015;28;20186;-63
2021/12/01 09:48:38;;;;;;;4.75;4.10;;;;;;;;;;5042195;28;20300;-65
2021/12/01 09:51:05;;;;;;;4.78;4.15;;;;;;;;;;5033664;28;20187;-65
2021/12/01 09:53:32;;;;;;;7.20;5.00;;;;;;;;;;5042216;28;20551;-64
2021/12/01 09:55:58;;;;;;;6.70;4.40;;;;;;;;;;5045176;28;20187;-65
2021/12/01 09:58:31;;;;;;;7.40;4.60;;;;;;;;;;5044520;28;20248;-65
2021/12/01 10:00:58;;;;;;;4.55;3.75;;;;;;;;;;5047579;28;20201;-65
2021/12/01 10:03:25;;;;;;;8.15;4.35;;;;;;;;;;5046792;28;20186;-64
2021/12/01 10:05:52;;;;;;;4.57;4.10;;;;;;;;;;5036172;28;20198;-64
2021/12/01 10:08:20;;;;;;;5.10;4.07;;;;;;;;;;5040949;28;20210;-65
2021/12/01 10:10:47;;;;;;;15.93;5.03;;;;;;;;;;5043017;28;20549;-65
2021/12/01 10:13:15;;;;;;;8.88;4.70;;;;;;;;;;5048016;28;20658;-64
2021/12/01 10:15:41;;;;;;;7.15;5.00;;;;;;;;;;5048972;28;20616;-66
2021/12/01 10:18:16;;;;;;;7.22;4.88;;;;;;;;;;5047613;28;20217;-64
2021/12/01 10:20:45;;;;;;;5.13;4.63;;;;;;;;;;5038527;28;20210;-64
2021/12/01 10:23:14;;;;;;;5.10;4.50;;;;;;;;;;5033689;28;20269;-62
2021/12/01 10:25:41;;;;;;;6.35;5.60;;;;;;;;;;5048123;28;20615;-64
2021/12/01 10:28:13;;;;;;;17.60;5.45;;;;;;;;;;5047090;28;20693;-65
2021/12/01 10:30:43;;;;;;;6.43;5.65;;;;;;;;;;5045147;28;20252;-64
2021/12/01 10:33:11;;;;;;;7.13;5.40;;;;;;;;;;5048674;28;20171;-64
2021/12/01 10:35:38;;;;;;;5.88;5.03;;;;;;;;;;5037500;28;20697;-64
2021/12/01 10:38:06;;;;;;;6.80;5.88;;;;;;;;;;5047239;28;20281;-63
2021/12/01 10:40:34;;;;;;;6.60;4.72;;;;;;;;;;5047694;28;20214;-64
2021/12/01 10:43:08;;;;;;;5.35;4.90;;;;;;;;;;5047696;28;20190;-64
2021/12/01 10:45:40;;;;;;;6.82;6.20;;;;;;;;;;5038263;28;20188;-66
2021/12/01 10:48:09;;;;;;;9.20;6.35;;;;;;;;;;5047465;28;20229;-64
2021/12/01 10:50:37;;;;;;;6.35;5.75;;;;;;;;;;5030339;28;20187;-64
2021/12/01 10:53:05;;;;;;;7.13;6.05;;;;;;;;;;5045442;28;20183;-65
2021/12/01 10:55:32;;;;;;;10.85;7.28;;;;;;;;;;5046605;28;20283;-65
2021/12/01 10:58:06;;;;;;;7.25;6.18;;;;;;;;;;5049045;28;20198;-65
2021/12/01 11:00:41;;;;;;;7.18;6.05;;;;;;;;;;5046485;28;20191;-66
2021/12/01 11:03:13;;;;;;;7.22;6.47;;;;;;;;;;5039221;28;20194;-65
2021/12/01 11:05:42;;;;;;;7.22;5.72;;;;;;;;;;5046660;28;20183;-64
2021/12/01 11:08:11;;;;;;;5.53;5.03;;;;;;;;;;5040547;28;20211;-65
2021/12/01 11:10:38;;;;;;;11.00;7.00;;;;;;;;;;5045270;28;20197;-64
2021/12/01 11:13:05;;;;;;;12.02;6.57;;;;;;;;;;5042422;28;20193;-66
2021/12/01 11:15:36;;;;;;;7.43;6.10;;;;;;;;;;5051969;28;20244;-65
2021/12/01 11:18:03;;;;;;;6.90;6.30;;;;;;;;;;5047947;28;20217;-64
2021/12/01 11:20:35;;;;;;;9.82;6.70;;;;;;;;;;5049542;28;20201;-65
2021/12/01 11:23:09;;;;;;;8.13;6.20;;;;;;;;;;5044025;28;20230;-64
2021/12/01 11:25:36;;;;;;;7.03;5.82;;;;;;;;;;5050179;28;20258;-63
2021/12/01 11:28:04;;;;;;;11.50;7.00;;;;;;;;;;5048123;28;20218;-65
2021/12/01 11:30:32;;;;;;;7.32;6.25;;;;;;;;;;5052791;28;20252;-63
2021/12/01 11:32:59;;;;;;;7.00;6.38;;;;;;;;;;5039598;28;20221;-64
2021/12/01 11:35:26;;;;;;;10.85;7.30;;;;;;;;;;5051540;28;20194;-64
2021/12/01 11:37:55;;;;;;;10.23;7.03;;;;;;;;;;5044221;28;20191;-63
2021/12/01 11:40:24;;;;;;;10.32;6.97;;;;;;;;;;5044634;28;20198;-64
2021/12/01 11:42:50;;;;;;;11.10;8.25;;;;;;;;;;5044466;28;20183;-64
2021/12/01 11:45:17;;;;;;;9.52;7.82;;;;;;;;;;5039162;28;20273;-64
2021/12/01 11:47:47;;;;;;;8.27;6.85;;;;;;;;;;5045525;28;20667;-64
2021/12/01 11:50:18;;;;;;;8.48;7.60;;;;;;;;;;5048447;28;20183;-63
2021/12/01 11:53:03;;;;;;;11.85;8.32;;;;;;;;;;5047317;28;20312;-64
2021/12/01 11:55:48;;;;;;;9.23;6.45;;;;;;;;;;5045557;28;20194;-64
2021/12/01 11:58:33;;;;;;;8.65;7.80;;;;;;;;;;5052127;28;20194;-64
2021/12/01 12:00:59;;;;;;;9.07;8.13;;;;;;;;;;5036434;28;20679;-66
2021/12/01 12:03:27;;;;;;;9.57;8.15;;;;;;;;;;5048846;28;20182;-65
2021/12/01 12:06:12;;;;;;;10.70;8.70;;;;;;;;;;5044746;28;20225;-65
2021/12/01 12:08:59;;;;;;;10.70;8.48;;;;;;;;;;5049459;28;20210;-65
2021/12/01 12:11:38;;;;;;;9.15;8.25;;;;;;;;;;5040922;28;20180;-64
2021/12/01 12:14:06;;;;;;;9.65;8.25;;;;;;;;;;5040947;28;20252;-63
2021/12/01 12:16:33;;;;;;;9.63;8.73;;;;;;;;;;5040812;28;20183;-64
2021/12/01 12:19:00;;;;;;;12.35;8.82;;;;;;;;;;5043722;28;20183;-65
2021/12/01 12:24:05;;;;;;;9.20;8.13;;;;;;;;;;5034589;28;20199;-63
2021/12/01 12:26:33;;;;;;;9.00;8.07;;;;;;;;;;5045591;28;20179;-64
2021/12/01 12:29:06;;;;;;;13.15;8.98;;;;;;;;;;5043703;28;20218;-65
2021/12/01 12:31:32;;;;;;;12.55;8.95;;;;;;;;;;5046832;28;20180;-64
2021/12/01 12:34:03;;;;;;;10.27;8.82;;;;;;;;;;5047576;28;20187;-64
2021/12/01 12:36:50;;;;;;;8.77;7.97;;;;;;;;;;5040624;28;20185;-64
2021/12/01 12:39:21;;;;;;;10.52;8.15;;;;;;;;;;5040963;28;20182;-64
2021/12/01 12:42:06;;;;;;;10.02;9.05;;;;;;;;;;5046421;28;20655;-64
2021/12/01 12:44:34;;;;;;;19.88;10.07;;;;;;;;;;5043435;28;20191;-64
2021/12/01 12:47:01;;;;;;;22.75;8.82;;;;;;;;;;5040462;28;20194;-64
2021/12/01 12:49:48;;;;;;;10.48;9.38;;;;;;;;;;5043285;28;20573;-65
2021/12/01 12:52:28;;;;;;;11.40;8.82;;;;;;;;;;5047235;28;23488;-63
2021/12/01 12:54:55;;;;;;;10.10;9.20;;;;;;;;;;5048464;28;20190;-65
2021/12/01 12:57:22;;;;;;;10.57;9.48;;;;;;;;;;5043130;28;20207;-63
2021/12/01 12:59:49;;;;;;;10.25;9.15;;;;;;;;;;5049871;28;20191;-64
2021/12/01 13:02:15;;;;;;;13.70;9.38;;;;;;;;;;5043727;28;20188;-64
2021/12/01 13:05:01;;;;;;;11.35;9.38;;;;;;;;;;5044034;28;20186;-63
2021/12/01 13:07:31;;;;;;;10.65;7.95;;;;;;;;;;5035434;28;20191;-63
2021/12/01 13:10:14;;;;;;;9.88;7.65;;;;;;;;;;5045265;28;20236;-64
2021/12/01 13:12:45;;;;;;;8.27;7.35;;;;;;;;;;5039632;28;20183;-64
2021/12/01 13:15:22;;;;;;;12.77;8.55;;;;;;;;;;5046622;28;20277;-64
2021/12/01 13:17:49;;;;;;;9.52;7.07;;;;;;;;;;5037943;28;20206;-64
2021/12/01 13:20:19;;;;;;;11.32;8.13;;;;;;;;;;5036738;28;20305;-64
2021/12/01 13:23:03;;;;;;;13.60;7.53;;;;;;;;;;5040167;28;20279;-64
2021/12/01 13:25:29;;;;;;;11.15;8.13;;;;;;;;;;5040898;28;20192;-64
2021/12/01 13:27:56;;;;;;;9.75;7.18;;;;;;;;;;5049526;28;20270;-64
2021/12/01 13:30:23;;;;;;;11.40;7.97;;;;;;;;;;5046923;28;20191;-64
2021/12/01 13:33:09;;;;;;;10.60;7.78;;;;;;;;;;5036764;28;20278;-64
2021/12/01 13:35:36;;;;;;;8.70;7.28;;;;;;;;;;5041622;28;20194;-65
2021/12/01 13:38:02;;;;;;;9.32;7.97;;;;;;;;;;5043230;28;20199;-63
2021/12/01 13:40:29;;;;;;;9.50;7.05;;;;;;;;;;5045232;28;20646;-64
2021/12/01 13:42:56;;;;;;;8.40;7.15;;;;;;;;;;5036375;28;20184;-63
2021/12/01 13:45:26;;;;;;;11.23;7.50;;;;;;;;;;5039286;28;20308;-65
2021/12/01 13:47:53;;;;;;;15.20;7.25;;;;;;;;;;5042981;28;20203;-63
2021/12/01 13:50:20;;;;;;;9.75;6.78;;;;;;;;;;5041169;28;20266;-63
2021/12/01 13:52:49;;;;;;;10.85;6.53;;;;;;;;;;5041310;28;20233;-63
2021/12/01 13:55:22;;;;;;;9.00;5.95;;;;;;;;;;5031219;28;20215;-63
2021/12/01 13:58:07;;;;;;;10.23;6.45;;;;;;;;;;5039064;28;20199;-63
2021/12/01 14:00:36;;;;;;;12.65;6.80;;;;;;;;;;5033653;28;20921;-63
2021/12/01 14:03:02;;;;;;;16.23;6.43;;;;;;;;;;5038094;28;20276;-64
2021/12/01 14:05:30;;;;;;;9.38;6.00;;;;;;;;;;5042918;28;20273;-63
2021/12/01 14:08:20;;;;;;;11.27;6.22;;;;;;;;;;5039000;28;20206;-62
2021/12/01 14:10:55;;;;;;;13.27;6.25;;;;;;;;;;5046089;28;20278;-63
2021/12/01 14:13:23;;;;;;;11.60;6.80;;;;;;;;;;5043287;28;20652;-63
2021/12/01 14:15:50;;;;;;;6.18;5.25;;;;;;;;;;5044410;28;20289;-63
2021/12/01 14:18:17;;;;;;;10.77;5.40;;;;;;;;;;5042041;28;20706;-63
2021/12/01 14:20:44;;;;;;;7.30;6.15;;;;;;;;;;5044380;28;20293;-63
2021/12/01 14:23:10;;;;;;;8.45;6.55;;;;;;;;;;5046278;28;20689;-63
2021/12/01 14:25:37;;;;;;;7.40;6.65;;;;;;;;;;5042097;28;20636;-63
2021/12/01 14:28:10;;;;;;;6.82;6.10;;;;;;;;;;5045233;28;20271;-63
2021/12/01 14:30:38;;;;;;;7.78;6.97;;;;;;;;;;5035304;28;20263;-63
2021/12/01 14:33:08;;;;;;;8.43;6.32;;;;;;;;;;5045966;28;20170;-64
2021/12/01 14:35:35;;;;;;;11.98;7.07;;;;;;;;;;5039044;28;20187;-63
2021/12/01 14:38:01;;;;;;;7.88;5.78;;;;;;;;;;5045412;28;20220;-63
2021/12/01 14:40:27;;;;;;;7.85;5.93;;;;;;;;;;5045112;28;20186;-64
2021/12/01 14:42:56;;;;;;;11.68;6.60;;;;;;;;;;5039011;28;20187;-64
2021/12/01 14:45:24;;;;;;;7.00;5.65;;;;;;;;;;5044523;28;20197;-63
2021/12/01 14:48:10;;;;;;;9.45;5.40;;;;;;;;;;5047245;28;20210;-64
2021/12/01 14:50:38;;;;;;;5.60;5.05;;;;;;;;;;5043684;28;20190;-64
2021/12/01 14:53:06;;;;;;;9.15;5.35;;;;;;;;;;5037854;28;20619;-64
2021/12/01 14:55:34;;;;;;;5.78;4.63;;;;;;;;;;5049505;28;20187;-63